sensor_id;sensor_type;location;lat;lon;timestamp;noise_LAeq;noise_LA_min;noise_LA_max;noise_LA01;noise_LA95
58197;Laerm;43999;51.660;5.616;2023-07-29T00:00:57;49.62;48.20;51.20;;
58197;Laerm;43999;51.660;5.616;2023-07-29T00:03:24;49.61;48.36;51.47;;
58197;Laerm;43999;51.660;5.616;2023-07-29T00:05:52;49.59;48.34;51.45;;
58197;Laerm;43999;51.660;5.616;2023-07-29T00:08:19;49.63;48.12;51.46;;
58197;Laerm;43999;51.660;5.616;2023-07-29T00:10:47;49.61;48.26;51.20;;
58197;Laerm;43999;51.660;5.616;2023-07-29T00:13:14;49.59;48.36;51.51;;
58197;Laerm;43999;51.660;5.616;2023-07-29T00:15:42;49.61;48.39;51.62;;
58197;Laerm;43999;51.660;5.616;2023-07-29T00:18:09;49.60;48.29;51.45;;
58197;Laerm;43999;51.660;5.616;2023-07-29T00:20:36;49.61;48.20;51.23;;
58197;Laerm;43999;51.660;5.616;2023-07-29T00:23:04;49.61;48.18;51.14;;
58197;Laerm;43999;51.660;5.616;2023-07-29T00:25:31;49.62;48.45;51.53;;
58197;Laerm;43999;51.660;5.616;2023-07-29T00:27:59;49.59;48.40;51.31;;
58197;Laerm;43999;51.660;5.616;2023-07-29T00:30:26;49.60;48.36;51.10;;
58197;Laerm;43999;51.660;5.616;2023-07-29T00:32:54;49.61;48.12;51.33;;
58197;Laerm;43999;51.660;5.616;2023-07-29T00:35:21;49.60;48.39;51.53;;
58197;Laerm;43999;51.660;5.616;2023-07-29T00:37:48;49.61;48.39;51.00;;
58197;Laerm;43999;51.660;5.616;2023-07-29T00:40:21;49.61;48.26;51.28;;
58197;Laerm;43999;51.660;5.616;2023-07-29T00:42:50;49.63;48.43;51.59;;
58197;Laerm;43999;51.660;5.616;2023-07-29T00:45:18;49.60;48.45;51.24;;
58197;Laerm;43999;51.660;5.616;2023-07-29T00:47:46;49.61;48.39;51.32;;
58197;Laerm;43999;51.660;5.616;2023-07-29T00:50:17;49.60;48.42;51.33;;
58197;Laerm;43999;51.660;5.616;2023-07-29T00:52:44;49.61;48.39;51.42;;
58197;Laerm;43999;51.660;5.616;2023-07-29T00:55:12;49.60;48.25;51.46;;
58197;Laerm;43999;51.660;5.616;2023-07-29T00:57:43;49.60;48.42;51.19;;
58197;Laerm;43999;51.660;5.616;2023-07-29T01:00:16;49.59;48.36;51.00;;
58197;Laerm;43999;51.660;5.616;2023-07-29T01:02:44;49.60;48.25;51.58;;
58197;Laerm;43999;51.660;5.616;2023-07-29T01:05:16;49.61;48.36;51.10;;
58197;Laerm;43999;51.660;5.616;2023-07-29T01:17:03;49.61;48.15;51.09;;
58197;Laerm;43999;51.660;5.616;2023-07-29T01:20:08;49.60;48.16;51.38;;
58197;Laerm;43999;51.660;5.616;2023-07-29T01:22:37;49.60;48.21;51.26;;
58197;Laerm;43999;51.660;5.616;2023-07-29T01:25:07;49.59;48.34;51.07;;
58197;Laerm;43999;51.660;5.616;2023-07-29T01:27:35;49.61;48.36;51.22;;
58197;Laerm;43999;51.660;5.616;2023-07-29T01:30:04;49.60;48.32;51.20;;
58197;Laerm;43999;51.660;5.616;2023-07-29T01:32:58;49.59;48.02;51.37;;
58197;Laerm;43999;51.660;5.616;2023-07-29T01:35:42;49.60;48.45;51.62;;
58197;Laerm;43999;51.660;5.616;2023-07-29T01:38:29;49.60;48.39;51.22;;
58197;Laerm;43999;51.660;5.616;2023-07-29T01:41:04;49.59;48.31;51.36;;
58197;Laerm;43999;51.660;5.616;2023-07-29T01:43:34;49.60;48.40;51.14;;
58197;Laerm;43999;51.660;5.616;2023-07-29T01:46:06;49.58;48.31;51.24;;
58197;Laerm;43999;51.660;5.616;2023-07-29T01:48:34;49.60;48.46;51.50;;
58197;Laerm;43999;51.660;5.616;2023-07-29T01:51:01;49.60;48.25;51.63;;
58197;Laerm;43999;51.660;5.616;2023-07-29T01:53:29;49.60;48.08;51.18;;
58197;Laerm;43999;51.660;5.616;2023-07-29T01:55:56;49.59;48.13;51.39;;
58197;Laerm;43999;51.660;5.616;2023-07-29T01:58:25;49.60;48.42;51.18;;
58197;Laerm;43999;51.660;5.616;2023-07-29T02:00:52;49.60;48.26;51.29;;
58197;Laerm;43999;51.660;5.616;2023-07-29T02:03:20;49.60;48.45;51.20;;
58197;Laerm;43999;51.660;5.616;2023-07-29T02:05:47;49.60;48.45;51.18;;
58197;Laerm;43999;51.660;5.616;2023-07-29T02:08:15;49.58;48.40;51.09;;
58197;Laerm;43999;51.660;5.616;2023-07-29T02:10:43;49.60;48.36;51.15;;
58197;Laerm;43999;51.660;5.616;2023-07-29T02:13:13;49.60;48.37;51.03;;
58197;Laerm;43999;51.660;5.616;2023-07-29T02:15:40;49.59;48.32;50.97;;
58197;Laerm;43999;51.660;5.616;2023-07-29T02:18:08;49.60;48.32;51.17;;
58197;Laerm;43999;51.660;5.616;2023-07-29T02:20:35;49.60;48.32;51.32;;
58197;Laerm;43999;51.660;5.616;2023-07-29T02:23:03;49.60;48.40;51.22;;
58197;Laerm;43999;51.660;5.616;2023-07-29T02:25:30;49.62;48.26;51.22;;
58197;Laerm;43999;51.660;5.616;2023-07-29T02:27:58;49.61;48.21;51.38;;
58197;Laerm;43999;51.660;5.616;2023-07-29T02:30:25;49.60;48.45;51.34;;
58197;Laerm;43999;51.660;5.616;2023-07-29T02:32:52;49.60;48.26;51.20;;
58197;Laerm;43999;51.660;5.616;2023-07-29T02:35:21;49.61;48.42;51.10;;
58197;Laerm;43999;51.660;5.616;2023-07-29T02:37:48;49.61;48.20;51.10;;
58197;Laerm;43999;51.660;5.616;2023-07-29T02:40:19;49.61;48.13;51.38;;
58197;Laerm;43999;51.660;5.616;2023-07-29T02:42:48;49.59;48.20;51.33;;
58197;Laerm;43999;51.660;5.616;2023-07-29T02:45:15;49.59;48.28;51.25;;
58197;Laerm;43999;51.660;5.616;2023-07-29T02:47:43;49.60;48.05;51.13;;
58197;Laerm;43999;51.660;5.616;2023-07-29T02:50:10;49.61;48.42;51.33;;
58197;Laerm;43999;51.660;5.616;2023-07-29T02:52:38;49.59;48.34;51.07;;
58197;Laerm;43999;51.660;5.616;2023-07-29T02:55:06;49.60;48.21;51.39;;
58197;Laerm;43999;51.660;5.616;2023-07-29T02:57:34;49.60;48.32;51.45;;
58197;Laerm;43999;51.660;5.616;2023-07-29T03:00:02;49.61;48.40;51.06;;
58197;Laerm;43999;51.660;5.616;2023-07-29T03:02:31;49.60;48.26;51.03;;
58197;Laerm;43999;51.660;5.616;2023-07-29T03:04:59;49.59;48.34;51.54;;
58197;Laerm;43999;51.660;5.616;2023-07-29T03:07:27;49.59;48.15;51.26;;
58197;Laerm;43999;51.660;5.616;2023-07-29T03:09:54;49.59;48.46;51.49;;
58197;Laerm;43999;51.660;5.616;2023-07-29T03:12:21;49.60;48.26;51.35;;
58197;Laerm;43999;51.660;5.616;2023-07-29T03:14:49;49.60;48.20;51.36;;
58197;Laerm;43999;51.660;5.616;2023-07-29T03:17:17;49.59;48.32;51.07;;
58197;Laerm;43999;51.660;5.616;2023-07-29T03:19:44;49.58;48.32;51.24;;
58197;Laerm;43999;51.660;5.616;2023-07-29T03:22:11;49.59;48.20;51.10;;
58197;Laerm;43999;51.660;5.616;2023-07-29T03:24:39;49.58;48.37;51.30;;
58197;Laerm;43999;51.660;5.616;2023-07-29T03:27:06;49.58;48.31;51.45;;
58197;Laerm;43999;51.660;5.616;2023-07-29T03:29:35;49.59;48.32;51.84;;
58197;Laerm;43999;51.660;5.616;2023-07-29T03:32:04;49.59;48.34;51.49;;
58197;Laerm;43999;51.660;5.616;2023-07-29T03:34:31;49.58;48.43;51.33;;
58197;Laerm;43999;51.660;5.616;2023-07-29T03:37:00;49.59;48.26;51.17;;
58197;Laerm;43999;51.660;5.616;2023-07-29T03:39:28;49.58;48.42;51.35;;
58197;Laerm;43999;51.660;5.616;2023-07-29T03:41:56;49.58;48.31;51.12;;
58197;Laerm;43999;51.660;5.616;2023-07-29T03:44:23;49.59;48.36;51.09;;
58197;Laerm;43999;51.660;5.616;2023-07-29T03:46:50;49.58;48.45;51.33;;
58197;Laerm;43999;51.660;5.616;2023-07-29T03:49:18;49.59;48.36;51.40;;
58197;Laerm;43999;51.660;5.616;2023-07-29T03:51:45;49.57;48.23;51.19;;
58197;Laerm;43999;51.660;5.616;2023-07-29T03:54:13;49.59;48.37;51.56;;
58197;Laerm;43999;51.660;5.616;2023-07-29T03:56:40;49.58;48.35;51.39;;
58197;Laerm;43999;51.660;5.616;2023-07-29T03:59:08;49.59;48.32;51.37;;
58197;Laerm;43999;51.660;5.616;2023-07-29T04:01:35;49.58;48.39;51.26;;
58197;Laerm;43999;51.660;5.616;2023-07-29T04:04:03;49.59;48.32;51.28;;
58197;Laerm;43999;51.660;5.616;2023-07-29T04:06:31;49.58;48.28;51.54;;
58197;Laerm;43999;51.660;5.616;2023-07-29T04:08:59;49.57;48.31;51.40;;
58197;Laerm;43999;51.660;5.616;2023-07-29T04:11:27;49.59;48.39;51.13;;
58197;Laerm;43999;51.660;5.616;2023-07-29T04:13:54;49.57;48.21;51.39;;
58197;Laerm;43999;51.660;5.616;2023-07-29T04:16:22;49.56;48.26;51.63;;
58197;Laerm;43999;51.660;5.616;2023-07-29T04:18:49;49.57;48.31;51.27;;
58197;Laerm;43999;51.660;5.616;2023-07-29T04:21:17;49.57;48.26;51.08;;
58197;Laerm;43999;51.660;5.616;2023-07-29T04:23:44;49.57;48.13;51.25;;
58197;Laerm;43999;51.660;5.616;2023-07-29T04:26:12;49.58;48.32;51.17;;
58197;Laerm;43999;51.660;5.616;2023-07-29T04:28:39;49.55;48.31;51.50;;
58197;Laerm;43999;51.660;5.616;2023-07-29T04:31:07;49.56;48.40;51.27;;
58197;Laerm;43999;51.660;5.616;2023-07-29T04:33:34;49.58;48.31;51.09;;
58197;Laerm;43999;51.660;5.616;2023-07-29T04:36:04;49.57;48.10;51.52;;
58197;Laerm;43999;51.660;5.616;2023-07-29T04:38:33;49.58;48.31;51.30;;
58197;Laerm;43999;51.660;5.616;2023-07-29T04:41:02;49.57;48.23;50.99;;
58197;Laerm;43999;51.660;5.616;2023-07-29T04:43:33;49.57;48.36;51.32;;
58197;Laerm;43999;51.660;5.616;2023-07-29T04:46:00;49.56;48.28;51.26;;
58197;Laerm;43999;51.660;5.616;2023-07-29T04:48:28;49.58;48.37;51.23;;
58197;Laerm;43999;51.660;5.616;2023-07-29T04:50:55;49.57;48.28;51.37;;
58197;Laerm;43999;51.660;5.616;2023-07-29T04:53:23;49.57;48.26;51.65;;
58197;Laerm;43999;51.660;5.616;2023-07-29T04:55:50;49.57;48.23;51.31;;
58197;Laerm;43999;51.660;5.616;2023-07-29T04:58:18;49.56;48.21;51.21;;
58197;Laerm;43999;51.660;5.616;2023-07-29T05:00:47;49.58;48.34;51.37;;
58197;Laerm;43999;51.660;5.616;2023-07-29T05:03:14;49.56;48.42;51.10;;
58197;Laerm;43999;51.660;5.616;2023-07-29T05:05:42;49.56;48.28;51.48;;
58197;Laerm;43999;51.660;5.616;2023-07-29T05:08:10;49.55;48.21;51.30;;
58197;Laerm;43999;51.660;5.616;2023-07-29T05:10:37;49.59;48.36;51.28;;
58197;Laerm;43999;51.660;5.616;2023-07-29T05:13:04;49.57;48.37;51.37;;
58197;Laerm;43999;51.660;5.616;2023-07-29T05:15:32;49.57;48.28;51.26;;
58197;Laerm;43999;51.660;5.616;2023-07-29T05:18:00;49.57;48.34;50.97;;
58197;Laerm;43999;51.660;5.616;2023-07-29T05:20:27;49.57;48.43;51.27;;
58197;Laerm;43999;51.660;5.616;2023-07-29T05:22:55;49.57;48.28;51.34;;
58197;Laerm;43999;51.660;5.616;2023-07-29T05:25:22;49.57;48.32;51.30;;
58197;Laerm;43999;51.660;5.616;2023-07-29T05:27:50;49.58;48.05;51.08;;
58197;Laerm;43999;51.660;5.616;2023-07-29T05:30:17;49.57;48.31;51.08;;
58197;Laerm;43999;51.660;5.616;2023-07-29T05:32:45;49.59;48.39;51.16;;
58197;Laerm;43999;51.660;5.616;2023-07-29T05:35:12;49.59;48.34;51.27;;
58197;Laerm;43999;51.660;5.616;2023-07-29T05:37:40;49.59;48.43;51.40;;
58197;Laerm;43999;51.660;5.616;2023-07-29T05:40:09;49.59;48.16;51.15;;
58197;Laerm;43999;51.660;5.616;2023-07-29T05:42:38;49.60;48.39;51.59;;
58197;Laerm;43999;51.660;5.616;2023-07-29T05:45:07;49.58;48.26;51.06;;
58197;Laerm;43999;51.660;5.616;2023-07-29T05:47:35;49.59;48.37;51.14;;
58197;Laerm;43999;51.660;5.616;2023-07-29T05:50:04;49.59;48.15;51.34;;
58197;Laerm;43999;51.660;5.616;2023-07-29T05:52:32;49.59;48.36;51.19;;
58197;Laerm;43999;51.660;5.616;2023-07-29T05:55:02;49.59;48.07;51.54;;
58197;Laerm;43999;51.660;5.616;2023-07-29T05:57:30;49.58;48.39;51.37;;
58197;Laerm;43999;51.660;5.616;2023-07-29T05:59:58;49.61;48.42;51.33;;
58197;Laerm;43999;51.660;5.616;2023-07-29T06:02:26;49.59;48.23;51.30;;
58197;Laerm;43999;51.660;5.616;2023-07-29T06:04:54;49.59;48.15;51.41;;
58197;Laerm;43999;51.660;5.616;2023-07-29T06:07:21;49.61;48.39;51.29;;
58197;Laerm;43999;51.660;5.616;2023-07-29T06:09:49;49.60;48.13;51.19;;
58197;Laerm;43999;51.660;5.616;2023-07-29T06:12:16;49.61;48.39;51.06;;
58197;Laerm;43999;51.660;5.616;2023-07-29T06:14:43;49.60;48.31;51.23;;
58197;Laerm;43999;51.660;5.616;2023-07-29T06:17:11;49.63;48.36;51.10;;
58197;Laerm;43999;51.660;5.616;2023-07-29T06:19:39;49.61;48.37;51.26;;
58197;Laerm;43999;51.660;5.616;2023-07-29T06:22:06;49.63;48.39;51.27;;
58197;Laerm;43999;51.660;5.616;2023-07-29T06:24:34;49.64;48.31;51.34;;
58197;Laerm;43999;51.660;5.616;2023-07-29T06:27:01;49.64;48.45;51.26;;
58197;Laerm;43999;51.660;5.616;2023-07-29T06:29:30;49.62;48.40;51.30;;
58197;Laerm;43999;51.660;5.616;2023-07-29T06:31:58;49.65;48.32;51.37;;
58197;Laerm;43999;51.660;5.616;2023-07-29T06:34:27;49.63;48.37;51.46;;
58197;Laerm;43999;51.660;5.616;2023-07-29T06:36:54;49.64;48.23;51.26;;
58197;Laerm;43999;51.660;5.616;2023-07-29T06:39:22;49.64;48.29;51.37;;
58197;Laerm;43999;51.660;5.616;2023-07-29T06:41:49;49.63;48.15;51.33;;
58197;Laerm;43999;51.660;5.616;2023-07-29T06:44:18;49.64;48.31;51.33;;
58197;Laerm;43999;51.660;5.616;2023-07-29T06:46:46;49.65;48.39;51.38;;
58197;Laerm;43999;51.660;5.616;2023-07-29T06:49:13;49.62;48.12;51.80;;
58197;Laerm;43999;51.660;5.616;2023-07-29T06:51:41;49.64;48.23;51.40;;
58197;Laerm;43999;51.660;5.616;2023-07-29T06:54:08;49.64;48.29;51.18;;
58197;Laerm;43999;51.660;5.616;2023-07-29T06:56:36;49.64;48.20;51.18;;
58197;Laerm;43999;51.660;5.616;2023-07-29T06:59:04;49.65;48.36;51.22;;
58197;Laerm;43999;51.660;5.616;2023-07-29T07:01:32;49.63;48.43;51.18;;
58197;Laerm;43999;51.660;5.616;2023-07-29T07:03:59;49.62;48.32;51.39;;
58197;Laerm;43999;51.660;5.616;2023-07-29T07:06:27;49.63;48.39;51.47;;
58197;Laerm;43999;51.660;5.616;2023-07-29T07:08:54;49.63;48.43;51.22;;
58197;Laerm;43999;51.660;5.616;2023-07-29T07:11:23;49.63;48.40;51.27;;
58197;Laerm;43999;51.660;5.616;2023-07-29T07:13:50;49.64;48.48;51.46;;
58197;Laerm;43999;51.660;5.616;2023-07-29T07:16:18;49.64;48.21;50.99;;
58197;Laerm;43999;51.660;5.616;2023-07-29T07:18:45;49.64;48.39;51.73;;
58197;Laerm;43999;51.660;5.616;2023-07-29T07:21:13;49.65;48.36;51.22;;
58197;Laerm;43999;51.660;5.616;2023-07-29T07:23:40;49.66;48.42;51.19;;
58197;Laerm;43999;51.660;5.616;2023-07-29T07:26:07;49.66;48.42;51.26;;
58197;Laerm;43999;51.660;5.616;2023-07-29T07:28:35;49.65;48.37;51.56;;
58197;Laerm;43999;51.660;5.616;2023-07-29T07:31:02;49.66;48.34;51.30;;
58197;Laerm;43999;51.660;5.616;2023-07-29T07:33:30;49.67;48.23;51.52;;
58197;Laerm;43999;51.660;5.616;2023-07-29T07:35:57;49.66;48.49;51.40;;
58197;Laerm;43999;51.660;5.616;2023-07-29T07:38:25;49.66;48.29;51.23;;
58197;Laerm;43999;51.660;5.616;2023-07-29T07:40:56;49.68;48.36;51.44;;
58197;Laerm;43999;51.660;5.616;2023-07-29T07:43:24;49.68;48.40;51.41;;
58197;Laerm;43999;51.660;5.616;2023-07-29T07:45:59;49.69;48.48;51.23;;
58197;Laerm;43999;51.660;5.616;2023-07-29T07:48:28;49.66;48.28;51.22;;
58197;Laerm;43999;51.660;5.616;2023-07-29T07:50:56;49.67;48.36;51.27;;
58197;Laerm;43999;51.660;5.616;2023-07-29T07:53:24;49.67;48.48;51.45;;
58197;Laerm;43999;51.660;5.616;2023-07-29T07:55:53;49.67;48.25;51.20;;
58197;Laerm;43999;51.660;5.616;2023-07-29T07:58:20;49.67;48.51;51.93;;
58197;Laerm;43999;51.660;5.616;2023-07-29T08:00:47;49.68;48.39;51.03;;
58197;Laerm;43999;51.660;5.616;2023-07-29T08:03:15;49.66;48.48;51.08;;
58197;Laerm;43999;51.660;5.616;2023-07-29T08:05:42;49.67;48.21;51.57;;
58197;Laerm;43999;51.660;5.616;2023-07-29T08:08:09;49.67;48.52;51.15;;
58197;Laerm;43999;51.660;5.616;2023-07-29T08:10:37;49.67;48.42;51.32;;
58197;Laerm;43999;51.660;5.616;2023-07-29T08:13:05;49.67;48.39;51.63;;
58197;Laerm;43999;51.660;5.616;2023-07-29T08:15:33;49.67;48.51;51.41;;
58197;Laerm;43999;51.660;5.616;2023-07-29T08:18:00;49.68;48.51;51.45;;
58197;Laerm;43999;51.660;5.616;2023-07-29T08:20:28;49.67;48.45;51.36;;
58197;Laerm;43999;51.660;5.616;2023-07-29T08:22:56;49.68;48.31;51.22;;
58197;Laerm;43999;51.660;5.616;2023-07-29T08:25:23;49.70;48.43;51.28;;
58197;Laerm;43999;51.660;5.616;2023-07-29T08:27:51;49.71;48.34;51.42;;
58197;Laerm;43999;51.660;5.616;2023-07-29T08:30:20;49.72;48.43;51.42;;
58197;Laerm;43999;51.660;5.616;2023-07-29T08:32:48;49.72;48.47;51.23;;
58197;Laerm;43999;51.660;5.616;2023-07-29T08:35:15;49.72;48.36;51.54;;
58197;Laerm;43999;51.660;5.616;2023-07-29T08:37:43;49.72;48.43;51.49;;
58197;Laerm;43999;51.660;5.616;2023-07-29T08:40:11;49.73;48.36;51.29;;
58197;Laerm;43999;51.660;5.616;2023-07-29T08:42:41;49.71;48.48;51.39;;
58197;Laerm;43999;51.660;5.616;2023-07-29T08:45:11;49.72;48.36;51.46;;
58197;Laerm;43999;51.660;5.616;2023-07-29T08:47:39;49.73;48.40;51.44;;
58197;Laerm;43999;51.660;5.616;2023-07-29T08:50:07;49.74;48.42;51.44;;
58197;Laerm;43999;51.660;5.616;2023-07-29T08:52:36;49.75;48.40;52.47;;
58197;Laerm;43999;51.660;5.616;2023-07-29T08:55:04;49.77;48.49;51.47;;
58197;Laerm;43999;51.660;5.616;2023-07-29T08:57:33;49.78;48.46;51.27;;
58197;Laerm;43999;51.660;5.616;2023-07-29T09:00:02;49.75;48.52;51.34;;
58197;Laerm;43999;51.660;5.616;2023-07-29T09:02:30;49.74;48.46;51.43;;
58197;Laerm;43999;51.660;5.616;2023-07-29T09:04:57;49.73;48.37;51.52;;
58197;Laerm;43999;51.660;5.616;2023-07-29T09:07:25;49.72;48.40;51.37;;
58197;Laerm;43999;51.660;5.616;2023-07-29T09:09:53;49.74;48.49;51.67;;
58197;Laerm;43999;51.660;5.616;2023-07-29T09:12:21;49.73;48.52;51.33;;
58197;Laerm;43999;51.660;5.616;2023-07-29T09:14:52;49.73;48.54;51.27;;
58197;Laerm;43999;51.660;5.616;2023-07-29T09:17:20;49.75;48.36;51.49;;
58197;Laerm;43999;51.660;5.616;2023-07-29T09:19:51;49.77;48.43;51.33;;
58197;Laerm;43999;51.660;5.616;2023-07-29T09:22:20;49.76;48.36;51.41;;
58197;Laerm;43999;51.660;5.616;2023-07-29T09:24:48;49.78;48.61;51.35;;
58197;Laerm;43999;51.660;5.616;2023-07-29T09:27:27;49.82;48.45;51.33;;
58197;Laerm;43999;51.660;5.616;2023-07-29T09:29:55;49.82;48.31;51.37;;
58197;Laerm;43999;51.660;5.616;2023-07-29T09:32:25;49.83;48.55;51.59;;
58197;Laerm;43999;51.660;5.616;2023-07-29T09:34:52;49.84;48.42;51.17;;
58197;Laerm;43999;51.660;5.616;2023-07-29T09:37:23;49.85;48.51;51.47;;
58197;Laerm;43999;51.660;5.616;2023-07-29T09:39:52;49.84;48.37;51.56;;
58197;Laerm;43999;51.660;5.616;2023-07-29T09:42:23;49.82;48.39;51.35;;
58197;Laerm;43999;51.660;5.616;2023-07-29T09:44:51;49.82;48.39;51.21;;
58197;Laerm;43999;51.660;5.616;2023-07-29T09:47:24;49.81;48.49;51.57;;
58197;Laerm;43999;51.660;5.616;2023-07-29T09:49:53;49.82;48.42;51.25;;
58197;Laerm;43999;51.660;5.616;2023-07-29T09:52:23;49.80;48.51;51.17;;
58197;Laerm;43999;51.660;5.616;2023-07-29T09:54:51;49.81;48.61;51.57;;
58197;Laerm;43999;51.660;5.616;2023-07-29T09:57:19;49.79;48.42;51.30;;
58197;Laerm;43999;51.660;5.616;2023-07-29T09:59:55;49.81;48.52;51.51;;
58197;Laerm;43999;51.660;5.616;2023-07-29T10:02:24;49.82;48.70;51.26;;
58197;Laerm;43999;51.660;5.616;2023-07-29T10:04:53;49.80;48.61;51.26;;
58197;Laerm;43999;51.660;5.616;2023-07-29T10:07:22;49.80;48.52;51.26;;
58197;Laerm;43999;51.660;5.616;2023-07-29T10:09:52;49.81;48.48;51.55;;
58197;Laerm;43999;51.660;5.616;2023-07-29T10:12:21;49.81;48.64;51.31;;
58197;Laerm;43999;51.660;5.616;2023-07-29T10:14:50;49.83;48.58;51.21;;
58197;Laerm;43999;51.660;5.616;2023-07-29T10:17:20;49.82;48.46;51.18;;
58197;Laerm;43999;51.660;5.616;2023-07-29T10:19:49;49.81;48.52;51.64;;
58197;Laerm;43999;51.660;5.616;2023-07-29T10:22:20;49.82;48.57;51.50;;
58197;Laerm;43999;51.660;5.616;2023-07-29T10:24:50;49.82;48.64;51.50;;
58197;Laerm;43999;51.660;5.616;2023-07-29T10:27:25;49.82;48.54;51.05;;
58197;Laerm;43999;51.660;5.616;2023-07-29T10:29:55;49.83;48.55;51.63;;
58197;Laerm;43999;51.660;5.616;2023-07-29T10:32:27;49.81;48.51;51.45;;
58197;Laerm;43999;51.660;5.616;2023-07-29T10:34:56;49.81;48.32;51.37;;
58197;Laerm;43999;51.660;5.616;2023-07-29T10:37:24;49.82;48.49;51.65;;
58197;Laerm;43999;51.660;5.616;2023-07-29T10:39:55;49.84;48.10;51.37;;
58197;Laerm;43999;51.660;5.616;2023-07-29T10:42:24;49.85;48.57;51.49;;
58197;Laerm;43999;51.660;5.616;2023-07-29T10:44:53;49.83;48.36;51.27;;
58197;Laerm;43999;51.660;5.616;2023-07-29T10:47:27;49.83;48.51;51.44;;
58197;Laerm;43999;51.660;5.616;2023-07-29T10:49:59;49.82;48.36;51.47;;
58197;Laerm;43999;51.660;5.616;2023-07-29T10:55:23;49.86;48.69;51.30;;
58197;Laerm;43999;51.660;5.616;2023-07-29T10:58:04;49.86;48.51;51.41;;
58197;Laerm;43999;51.660;5.616;2023-07-29T11:00:32;49.86;48.57;51.47;;
58197;Laerm;43999;51.660;5.616;2023-07-29T11:03:05;49.84;48.54;51.65;;
58197;Laerm;43999;51.660;5.616;2023-07-29T11:05:53;49.85;48.31;51.70;;
58197;Laerm;43999;51.660;5.616;2023-07-29T11:08:31;49.84;48.59;51.42;;
58197;Laerm;43999;51.660;5.616;2023-07-29T11:13:36;49.83;48.67;51.33;;
58197;Laerm;43999;51.660;5.616;2023-07-29T11:16:05;49.81;48.31;51.94;;
58197;Laerm;43999;51.660;5.616;2023-07-29T11:18:35;49.80;48.51;51.48;;
58197;Laerm;43999;51.660;5.616;2023-07-29T11:21:04;49.78;48.15;51.26;;
58197;Laerm;43999;51.660;5.616;2023-07-29T11:23:36;49.79;48.40;51.33;;
58197;Laerm;43999;51.660;5.616;2023-07-29T11:26:06;49.78;48.20;51.80;;
58197;Laerm;43999;51.660;5.616;2023-07-29T11:28:39;49.78;48.31;51.36;;
58197;Laerm;43999;51.660;5.616;2023-07-29T11:31:07;49.78;48.43;51.42;;
58197;Laerm;43999;51.660;5.616;2023-07-29T11:33:39;49.78;48.46;51.45;;
58197;Laerm;43999;51.660;5.616;2023-07-29T11:36:17;49.78;48.49;51.46;;
58197;Laerm;43999;51.660;5.616;2023-07-29T11:38:46;49.78;48.52;51.17;;
58197;Laerm;43999;51.660;5.616;2023-07-29T11:41:20;49.77;48.46;51.52;;
58197;Laerm;43999;51.660;5.616;2023-07-29T11:43:49;49.77;48.58;51.24;;
58197;Laerm;43999;51.660;5.616;2023-07-29T11:46:20;49.78;48.55;51.53;;
58197;Laerm;43999;51.660;5.616;2023-07-29T11:48:48;49.79;48.54;51.40;;
58197;Laerm;43999;51.660;5.616;2023-07-29T11:51:16;49.79;48.49;52.91;;
58197;Laerm;43999;51.660;5.616;2023-07-29T11:53:44;49.80;48.58;51.43;;
58197;Laerm;43999;51.660;5.616;2023-07-29T11:56:12;49.79;48.55;51.19;;
58197;Laerm;43999;51.660;5.616;2023-07-29T11:58:40;49.78;48.36;51.43;;
58197;Laerm;43999;51.660;5.616;2023-07-29T12:01:09;49.78;48.52;51.22;;
58197;Laerm;43999;51.660;5.616;2023-07-29T12:03:38;49.78;48.25;51.45;;
58197;Laerm;43999;51.660;5.616;2023-07-29T12:06:09;49.77;48.51;51.26;;
58197;Laerm;43999;51.660;5.616;2023-07-29T12:08:37;49.78;48.52;51.44;;
58197;Laerm;43999;51.660;5.616;2023-07-29T12:11:05;49.79;48.51;51.32;;
58197;Laerm;43999;51.660;5.616;2023-07-29T12:13:36;49.74;48.45;51.42;;
58197;Laerm;43999;51.660;5.616;2023-07-29T12:16:04;49.74;48.38;51.33;;
58197;Laerm;43999;51.660;5.616;2023-07-29T12:18:33;49.72;48.34;51.43;;
58197;Laerm;43999;51.660;5.616;2023-07-29T12:21:01;49.70;48.23;51.34;;
58197;Laerm;43999;51.660;5.616;2023-07-29T12:23:29;49.67;48.42;51.31;;
58197;Laerm;43999;51.660;5.616;2023-07-29T12:25:59;49.64;48.31;51.39;;
58197;Laerm;43999;51.660;5.616;2023-07-29T12:28:27;49.64;48.36;51.49;;
58197;Laerm;43999;51.660;5.616;2023-07-29T12:30:56;49.63;48.39;51.17;;
58197;Laerm;43999;51.660;5.616;2023-07-29T12:33:33;49.64;48.46;51.40;;
58197;Laerm;43999;51.660;5.616;2023-07-29T12:36:02;49.61;48.31;51.11;;
58197;Laerm;43999;51.660;5.616;2023-07-29T12:38:30;49.63;48.02;51.44;;
58197;Laerm;43999;51.660;5.616;2023-07-29T12:40:57;49.61;48.49;51.36;;
58197;Laerm;43999;51.660;5.616;2023-07-29T12:43:25;49.60;48.12;51.40;;
58197;Laerm;43999;51.660;5.616;2023-07-29T12:45:53;49.60;48.34;51.34;;
58197;Laerm;43999;51.660;5.616;2023-07-29T12:48:20;49.59;48.43;51.18;;
58197;Laerm;43999;51.660;5.616;2023-07-29T12:50:48;49.59;48.34;51.16;;
58197;Laerm;43999;51.660;5.616;2023-07-29T12:53:15;49.56;47.96;51.21;;
58197;Laerm;43999;51.660;5.616;2023-07-29T12:55:43;49.58;48.20;51.95;;
58197;Laerm;43999;51.660;5.616;2023-07-29T12:58:10;49.60;48.32;51.37;;
58197;Laerm;43999;51.660;5.616;2023-07-29T13:00:38;49.60;48.37;51.49;;
58197;Laerm;43999;51.660;5.616;2023-07-29T13:03:05;49.61;48.39;51.43;;
58197;Laerm;43999;51.660;5.616;2023-07-29T13:05:33;49.59;48.37;51.10;;
58197;Laerm;43999;51.660;5.616;2023-07-29T13:08:01;49.59;48.32;51.54;;
58197;Laerm;43999;51.660;5.616;2023-07-29T13:10:28;49.61;48.34;51.52;;
58197;Laerm;43999;51.660;5.616;2023-07-29T13:12:57;49.63;48.36;51.13;;
58197;Laerm;43999;51.660;5.616;2023-07-29T13:15:24;49.63;48.36;51.52;;
58197;Laerm;43999;51.660;5.616;2023-07-29T13:17:51;49.64;48.32;51.36;;
58197;Laerm;43999;51.660;5.616;2023-07-29T13:20:19;49.65;48.25;51.08;;
58197;Laerm;43999;51.660;5.616;2023-07-29T13:22:46;49.66;48.21;51.37;;
58197;Laerm;43999;51.660;5.616;2023-07-29T13:25:14;49.66;48.45;51.39;;
58197;Laerm;43999;51.660;5.616;2023-07-29T13:27:41;49.64;48.31;51.47;;
58197;Laerm;43999;51.660;5.616;2023-07-29T13:30:09;49.65;48.15;51.17;;
58197;Laerm;43999;51.660;5.616;2023-07-29T13:32:36;49.65;48.49;51.37;;
58197;Laerm;43999;51.660;5.616;2023-07-29T13:35:04;49.65;48.12;51.55;;
58197;Laerm;43999;51.660;5.616;2023-07-29T13:37:32;49.64;48.32;51.37;;
58197;Laerm;43999;51.660;5.616;2023-07-29T13:39:59;49.65;48.46;51.23;;
58197;Laerm;43999;51.660;5.616;2023-07-29T13:42:27;49.68;48.40;51.17;;
58197;Laerm;43999;51.660;5.616;2023-07-29T13:44:54;49.69;48.48;51.25;;
58197;Laerm;43999;51.660;5.616;2023-07-29T13:47:22;49.71;48.52;51.61;;
58197;Laerm;43999;51.660;5.616;2023-07-29T13:49:49;49.72;48.31;51.62;;
58197;Laerm;43999;51.660;5.616;2023-07-29T13:52:17;49.73;48.49;51.42;;
58197;Laerm;43999;51.660;5.616;2023-07-29T13:54:44;49.75;48.52;51.30;;
58197;Laerm;43999;51.660;5.616;2023-07-29T13:57:11;49.76;48.58;51.22;;
58197;Laerm;43999;51.660;5.616;2023-07-29T13:59:39;49.76;48.55;51.28;;
58197;Laerm;43999;51.660;5.616;2023-07-29T14:02:07;49.73;48.28;51.25;;
58197;Laerm;43999;51.660;5.616;2023-07-29T14:04:34;49.72;48.52;51.37;;
58197;Laerm;43999;51.660;5.616;2023-07-29T14:07:02;49.72;48.29;51.40;;